Time;durP1;ratioP1;P1;durP2;ratioP2;P2;SDS_P1;SDS_P2;PMS_P1;PMS_P2;Temp;Humidity;BMP_temperature;BMP_pressure;BME280_temperature;BME280_humidity;BME280_pressure;Samples;Min_cycle;Max_cycle;Signal;HPM_P1;HPM_P2
2022/01/14 00:02:13;;;;;;;;;;;23.90;61.80;;;;;;4946364;28;97287;-63
2022/01/14 00:04:43;;;;;;;;;;;24.00;61.90;;;;;;4953265;28;95659;-60
2022/01/14 00:07:14;;;;;;;;;;;24.00;62.00;;;;;;4951802;28;96707;-60
2022/01/14 00:09:46;;;;;;;;;;;24.10;62.10;;;;;;4938415;28;96254;-57
2022/01/14 00:12:24;;;;;;;;;;;24.10;62.20;;;;;;4949838;28;96452;-56
2022/01/14 00:15:13;;;;;;;;;;;24.10;62.40;;;;;;4952006;28;96517;-66
2022/01/14 00:17:43;;;;;;;;;;;24.10;62.50;;;;;;4943023;28;95455;-65
2022/01/14 00:20:14;;;;;;;;;;;24.10;62.70;;;;;;4951070;28;96159;-58
2022/01/14 00:22:45;;;;;;;;;;;24.20;63.50;;;;;;4950557;28;96380;-60
2022/01/14 00:33:52;;;;;;;;;;;24.30;63.40;;;;;;4949495;28;96252;-58
2022/01/14 00:36:22;;;;;;;;;;;24.50;63.40;;;;;;4950999;28;95734;-60
2022/01/14 00:38:51;;;;;;;;;;;24.70;63.40;;;;;;4964285;28;95803;-60
2022/01/14 00:41:21;;;;;;;;;;;24.80;63.50;;;;;;4945058;28;95357;-56
2022/01/14 00:43:59;;;;;;;;;;;25.00;63.50;;;;;;4949125;28;96690;-58
2022/01/14 00:46:30;;;;;;;;;;;25.10;63.40;;;;;;4941484;28;95507;-59
2022/01/14 00:49:01;;;;;;;;;;;25.20;63.30;;;;;;4964999;28;95283;-59
2022/01/14 00:51:32;;;;;;;;;;;25.20;63.30;;;;;;4948131;28;95898;-60
2022/01/14 00:54:03;;;;;;;;;;;25.30;63.30;;;;;;4946461;28;96796;-59
2022/01/14 00:59:13;;;;;;;;;;;25.40;63.30;;;;;;4949232;28;95710;-64
2022/01/14 00:59:26;;;;;;;;;;;25.40;62.30;;;;;;4940201;28;97058;-59
2022/01/14 01:02:00;;;;;;;;;;;25.20;61.90;;;;;;4963037;28;95985;-60
2022/01/14 01:04:40;;;;;;;;;;;25.00;61.00;;;;;;4948312;28;96642;-63
2022/01/14 01:07:12;;;;;;;;;;;24.90;61.00;;;;;;4948444;28;95786;-60
2022/01/14 01:09:48;;;;;;;;;;;25.10;61.30;;;;;;4937455;28;96264;-60
2022/01/14 01:12:42;;;;;;;;;;;25.20;61.40;;;;;;4948169;28;97017;-58
2022/01/14 01:15:14;;;;;;;;;;;25.40;61.40;;;;;;4938602;28;96341;-59
2022/01/14 01:17:49;;;;;;;;;;;25.50;61.40;;;;;;4947502;28;101773;-65
2022/01/14 01:20:21;;;;;;;;;;;25.60;61.40;;;;;;4946612;28;95344;-56
2022/01/14 01:22:54;;;;;;;;;;;25.80;61.60;;;;;;5003781;28;98090;-57
2022/01/14 01:25:46;;;;;;;;;;;26.00;61.50;;;;;;5001382;28;96594;-65
2022/01/14 01:28:17;;;;;;;;;;;26.10;61.20;;;;;;4989596;28;95779;-59
2022/01/14 01:33:24;;;;;;;;;;;26.40;61.00;;;;;;5002703;28;96027;-60
2022/01/14 01:35:56;;;;;;;;;;;26.50;60.90;;;;;;4987336;28;96002;-60
2022/01/14 01:38:26;;;;;;;;;;;26.60;60.70;;;;;;4988955;28;95710;-57
2022/01/14 01:40:56;;;;;;;;;;;26.80;60.70;;;;;;4984953;28;95310;-58
2022/01/14 01:43:30;;;;;;;;;;;26.80;60.50;;;;;;4998701;28;95967;-59
2022/01/14 01:46:00;;;;;;;;;;;26.90;60.40;;;;;;4973914;28;96648;-57
2022/01/14 01:48:31;;;;;;;;;;;27.00;60.30;;;;;;4996722;28;97381;-58
2022/01/14 01:51:04;;;;;;;;;;;27.10;60.20;;;;;;4967542;28;95805;-57
2022/01/14 01:53:35;;;;;;;;;;;27.30;60.00;;;;;;5002787;28;95235;-59
2022/01/14 01:56:05;;;;;;;;;;;27.40;60.00;;;;;;4989271;28;96635;-57
2022/01/14 01:58:36;;;;;;;;;;;27.50;59.90;;;;;;4988256;28;98726;-57
2022/01/14 02:01:07;;;;;;;;;;;27.60;59.90;;;;;;4979631;28;95669;-58
2022/01/14 02:03:37;;;;;;;;;;;27.60;59.70;;;;;;4987388;28;96450;-59
2022/01/14 02:06:07;;;;;;;;;;;27.80;59.60;;;;;;4987829;28;96392;-67
2022/01/14 02:08:37;;;;;;;;;;;27.80;59.20;;;;;;4978140;28;95769;-65
2022/01/14 02:11:08;;;;;;;;;;;27.90;59.20;;;;;;4970430;28;95968;-65
2022/01/14 02:13:38;;;;;;;;;;;28.10;59.10;;;;;;4983408;28;95558;-66
2022/01/14 02:18:49;;;;;;;;;;;28.30;58.80;;;;;;4967958;28;95780;-65
2022/01/14 02:24:09;;;;;;;;;;;28.40;58.40;;;;;;4957886;28;95856;-63
2022/01/14 02:26:50;;;;;;;;;;;28.50;58.80;;;;;;4949069;28;95767;-63
2022/01/14 02:29:21;;;;;;;;;;;28.40;55.50;;;;;;4981233;28;97969;-55
2022/01/14 02:31:53;;;;;;;;;;;27.80;53.90;;;;;;4973530;28;96858;-63
2022/01/14 02:34:23;;;;;;;;;;;27.50;53.30;;;;;;4986242;28;96165;-58
2022/01/14 02:36:53;;;;;;;;;;;27.20;52.90;;;;;;4990807;28;95999;-54
2022/01/14 02:39:23;;;;;;;;;;;27.10;53.50;;;;;;4985284;28;96026;-62
2022/01/14 02:41:55;;;;;;;;;;;27.00;52.80;;;;;;4983948;28;96034;-54
2022/01/14 02:44:27;;;;;;;;;;;26.90;52.70;;;;;;4983831;28;95777;-55
2022/01/14 02:47:04;;;;;;;;;;;26.80;52.60;;;;;;4976855;28;99544;-63
2022/01/14 02:49:36;;;;;;;;;;;26.80;52.40;;;;;;4985976;28;95405;-51
2022/01/14 02:52:09;;;;;;;;;;;26.70;52.40;;;;;;4980942;28;95720;-55
2022/01/14 02:54:52;;;;;;;;;;;26.70;52.10;;;;;;4975962;28;96101;-53
2022/01/14 02:57:23;;;;;;;;;;;26.60;51.90;;;;;;4977571;28;97172;-54
2022/01/14 02:59:54;;;;;;;;;;;26.50;51.50;;;;;;4984367;28;96400;-53
2022/01/14 03:02:24;;;;;;;;;;;26.40;51.30;;;;;;4983739;28;95713;-54
2022/01/14 03:04:53;;;;;;;;;;;26.40;51.30;;;;;;4989420;28;95658;-52
2022/01/14 03:07:23;;;;;;;;;;;26.40;51.20;;;;;;4985333;28;96601;-51
2022/01/14 03:09:53;;;;;;;;;;;26.40;50.90;;;;;;4964007;28;95733;-56
2022/01/14 03:12:24;;;;;;;;;;;26.40;50.80;;;;;;4971078;28;96620;-63
2022/01/14 03:14:53;;;;;;;;;;;26.40;50.80;;;;;;4986798;28;95236;-55
2022/01/14 03:17:23;;;;;;;;;;;26.40;51.20;;;;;;4978068;28;96039;-57
2022/01/14 03:19:58;;;;;;;;;;;26.50;50.90;;;;;;4987055;28;95940;-58
2022/01/14 03:22:34;;;;;;;;;;;26.50;50.90;;;;;;4992720;28;95845;-63
2022/01/14 03:27:53;;;;;;;;;;;26.50;50.50;;;;;;5001594;28;96319;-64
2022/01/14 03:30:24;;;;;;;;;;;26.50;50.50;;;;;;4978167;28;96003;-55
2022/01/14 03:32:55;;;;;;;;;;;26.60;50.30;;;;;;4964090;28;96044;-65
2022/01/14 03:35:26;;;;;;;;;;;26.60;50.30;;;;;;4970431;28;98250;-55
2022/01/14 03:37:56;;;;;;;;;;;26.60;50.30;;;;;;4969893;28;96352;-66
2022/01/14 03:40:26;;;;;;;;;;;26.70;49.80;;;;;;4948025;28;97982;-63
2022/01/14 03:42:57;;;;;;;;;;;26.70;49.90;;;;;;4979263;28;97086;-64
2022/01/14 03:45:27;;;;;;;;;;;26.70;49.60;;;;;;4959546;28;98477;-65
2022/01/14 03:47:58;;;;;;;;;;;26.60;49.60;;;;;;4965778;28;96953;-66
2022/01/14 03:50:29;;;;;;;;;;;26.60;49.50;;;;;;4965758;28;95887;-60
2022/01/14 03:53:00;;;;;;;;;;;26.50;49.50;;;;;;4969194;28;96694;-61
2022/01/14 03:55:34;;;;;;;;;;;26.50;49.50;;;;;;4971205;28;95856;-56
2022/01/14 03:58:07;;;;;;;;;;;26.50;49.40;;;;;;4953950;28;96322;-55
2022/01/14 04:00:37;;;;;;;;;;;26.40;49.20;;;;;;4962955;28;95820;-66
2022/01/14 04:03:07;;;;;;;;;;;26.50;49.50;;;;;;4989653;28;96099;-64
2022/01/14 04:05:38;;;;;;;;;;;26.50;49.50;;;;;;4989287;28;95559;-65
2022/01/14 04:08:10;;;;;;;;;;;26.50;49.50;;;;;;4990311;28;95969;-58
2022/01/14 04:10:42;;;;;;;;;;;26.60;49.50;;;;;;4985636;28;98807;-66
2022/01/14 04:13:18;;;;;;;;;;;26.50;49.30;;;;;;4988808;28;95656;-61
2022/01/14 04:15:48;;;;;;;;;;;26.50;49.20;;;;;;4982538;28;95987;-65
2022/01/14 04:18:20;;;;;;;;;;;26.40;48.70;;;;;;4970392;28;96094;-62
2022/01/14 04:20:52;;;;;;;;;;;26.40;49.20;;;;;;5003056;28;97475;-55
2022/01/14 04:23:23;;;;;;;;;;;26.30;48.90;;;;;;4988270;28;96402;-54
2022/01/14 04:25:55;;;;;;;;;;;26.30;48.70;;;;;;4993551;28;98059;-56
2022/01/14 04:28:29;;;;;;;;;;;26.20;46.40;;;;;;4970271;28;95962;-52
2022/01/14 04:30:59;;;;;;;;;;;26.20;48.60;;;;;;4982200;28;95458;-59
2022/01/14 04:33:31;;;;;;;;;;;26.20;48.40;;;;;;4989713;28;96417;-56
2022/01/14 04:36:01;;;;;;;;;;;26.20;48.50;;;;;;4989741;28;95832;-64
2022/01/14 04:38:31;;;;;;;;;;;26.20;48.20;;;;;;4967338;28;96179;-56
2022/01/14 04:41:02;;;;;;;;;;;26.30;48.00;;;;;;4987061;28;96408;-55
2022/01/14 04:43:34;;;;;;;;;;;26.20;47.80;;;;;;5002702;28;95649;-62
2022/01/14 04:48:38;;;;;;;;;;;26.20;47.60;;;;;;4988447;28;96700;-55
2022/01/14 04:51:10;;;;;;;;;;;26.20;47.00;;;;;;4994403;28;95795;-66
2022/01/14 04:53:41;;;;;;;;;;;26.20;47.50;;;;;;4988877;28;95794;-58
2022/01/14 04:56:15;;;;;;;;;;;26.20;47.60;;;;;;4987484;28;95883;-56
2022/01/14 04:58:46;;;;;;;;;;;26.20;47.60;;;;;;5000090;28;96460;-58
2022/01/14 05:01:16;;;;;;;;;;;26.10;47.40;;;;;;4980313;28;95867;-64
2022/01/14 05:03:46;;;;;;;;;;;26.10;47.70;;;;;;4988358;28;95859;-63
2022/01/14 05:06:17;;;;;;;;;;;26.10;47.80;;;;;;4972588;28;95866;-58
2022/01/14 05:08:48;;;;;;;;;;;26.10;47.90;;;;;;4986945;28;95867;-57
2022/01/14 05:13:48;;;;;;;;;;;26.20;48.20;;;;;;4988087;28;95823;-60
2022/01/14 05:16:18;;;;;;;;;;;26.20;46.60;;;;;;4982684;28;97792;-59
2022/01/14 05:18:50;;;;;;;;;;;26.30;48.20;;;;;;4988140;28;96087;-65
2022/01/14 05:21:21;;;;;;;;;;;26.30;48.20;;;;;;5004952;28;96380;-60
2022/01/14 05:23:53;;;;;;;;;;;26.30;48.10;;;;;;4968990;28;95325;-59
2022/01/14 05:26:25;;;;;;;;;;;26.30;48.00;;;;;;4987375;28;95765;-64
2022/01/14 05:28:55;;;;;;;;;;;26.20;46.60;;;;;;4988702;28;96538;-55
2022/01/14 05:31:44;;;;;;;;;;;26.10;48.40;;;;;;4979835;28;95776;-66
2022/01/14 05:34:15;;;;;;;;;;;26.10;48.50;;;;;;4988037;28;96025;-64
2022/01/14 05:36:44;;;;;;;;;;;26.10;48.50;;;;;;4990469;28;95922;-60
2022/01/14 05:39:14;;;;;;;;;;;26.20;47.20;;;;;;5002584;28;96571;-54
2022/01/14 05:41:43;;;;;;;;;;;26.20;48.50;;;;;;4994092;28;95940;-59
2022/01/14 05:44:14;;;;;;;;;;;26.20;48.30;;;;;;4983062;28;95695;-53
2022/01/14 05:46:44;;;;;;;;;;;26.20;46.80;;;;;;4989610;28;95664;-60
2022/01/14 05:49:14;;;;;;;;;;;26.20;48.10;;;;;;4984712;28;96799;-58
2022/01/14 05:51:46;;;;;;;;;;;26.20;48.00;;;;;;5002657;28;97703;-66
2022/01/14 05:54:17;;;;;;;;;;;26.20;48.00;;;;;;4996801;28;95591;-58
2022/01/14 05:56:48;;;;;;;;;;;26.20;47.80;;;;;;5003832;28;95738;-66
2022/01/14 05:59:19;;;;;;;;;;;26.20;47.70;;;;;;4984896;28;97034;-55
2022/01/14 06:01:50;;;;;;;;;;;26.20;48.20;;;;;;4978369;28;96843;-60
2022/01/14 06:04:19;;;;;;;;;;;26.20;48.10;;;;;;4971679;28;95839;-59
2022/01/14 06:06:49;;;;;;;;;;;26.20;47.90;;;;;;4984672;28;95587;-57
2022/01/14 06:09:20;;;;;;;;;;;26.20;47.90;;;;;;4979325;28;96225;-65
2022/01/14 06:11:51;;;;;;;;;;;26.20;47.70;;;;;;4984993;28;95896;-60
2022/01/14 06:14:20;;;;;;;;;;;26.20;47.90;;;;;;4987515;28;95947;-59
2022/01/14 06:16:49;;;;;;;;;;;26.30;47.70;;;;;;4985580;28;95787;-66
2022/01/14 06:19:20;;;;;;;;;;;26.30;48.00;;;;;;4986531;28;96436;-54
2022/01/14 06:21:51;;;;;;;;;;;26.30;48.00;;;;;;4987896;28;95489;-58
2022/01/14 06:24:22;;;;;;;;;;;26.30;48.00;;;;;;4988018;28;95824;-56
2022/01/14 06:26:53;;;;;;;;;;;26.30;47.90;;;;;;4987034;28;95843;-65
2022/01/14 06:29:23;;;;;;;;;;;26.20;47.80;;;;;;4968541;28;96038;-56
2022/01/14 06:31:54;;;;;;;;;;;26.40;46.40;;;;;;4960062;28;95863;-58
2022/01/14 06:34:24;;;;;;;;;;;26.40;47.80;;;;;;4985097;28;96414;-59
2022/01/14 06:36:54;;;;;;;;;;;26.40;47.60;;;;;;4986156;28;95450;-56
2022/01/14 06:39:23;;;;;;;;;;;26.40;48.20;;;;;;4990311;28;96333;-58
2022/01/14 06:41:54;;;;;;;;;;;26.30;47.50;;;;;;4986487;28;96565;-56
2022/01/14 06:44:25;;;;;;;;;;;26.30;47.60;;;;;;4986926;28;96020;-59
2022/01/14 06:46:56;;;;;;;;;;;26.30;47.60;;;;;;4979012;28;98510;-64
2022/01/14 06:49:27;;;;;;;;;;;26.20;47.60;;;;;;4987382;28;96385;-58
2022/01/14 06:51:58;;;;;;;;;;;26.30;47.60;;;;;;4985295;28;95751;-64
2022/01/14 06:54:29;;;;;;;;;;;26.20;47.60;;;;;;4983256;28;95763;-59
2022/01/14 06:57:00;;;;;;;;;;;26.20;47.50;;;;;;4986844;28;95935;-58
2022/01/14 06:59:31;;;;;;;;;;;26.20;47.50;;;;;;4991580;28;97251;-57
2022/01/14 07:02:03;;;;;;;;;;;26.20;47.50;;;;;;4981981;28;95784;-59
2022/01/14 07:04:33;;;;;;;;;;;26.20;47.60;;;;;;4985202;28;95965;-59
2022/01/14 07:07:06;;;;;;;;;;;26.20;47.50;;;;;;4986566;28;95757;-64
2022/01/14 07:09:35;;;;;;;;;;;26.10;47.50;;;;;;4979481;28;95955;-57
2022/01/14 07:12:06;;;;;;;;;;;26.10;47.60;;;;;;4985983;28;95816;-57
2022/01/14 07:14:35;;;;;;;;;;;26.10;47.60;;;;;;4987132;28;95710;-57
2022/01/14 07:17:05;;;;;;;;;;;26.20;46.30;;;;;;4955729;28;95706;-59
2022/01/14 07:19:37;;;;;;;;;;;26.10;47.50;;;;;;4987068;28;96456;-59
2022/01/14 07:22:08;;;;;;;;;;;26.10;47.40;;;;;;4984370;28;96554;-57
2022/01/14 07:24:40;;;;;;;;;;;26.10;47.40;;;;;;4984719;28;95863;-56
2022/01/14 07:27:10;;;;;;;;;;;26.10;47.40;;;;;;4988286;28;96124;-64
2022/01/14 07:29:41;;;;;;;;;;;26.10;47.40;;;;;;4988778;28;96095;-59
2022/01/14 07:32:12;;;;;;;;;;;26.10;47.30;;;;;;4985533;28;95565;-64
2022/01/14 07:34:43;;;;;;;;;;;26.00;47.40;;;;;;4992355;28;97719;-57
2022/01/14 07:37:20;;;;;;;;;;;26.00;47.20;;;;;;4988671;28;96036;-60
2022/01/14 07:39:50;;;;;;;;;;;26.00;47.20;;;;;;4988438;28;96040;-59
2022/01/14 07:42:21;;;;;;;;;;;26.00;47.10;;;;;;4987845;28;95472;-65
2022/01/14 07:44:52;;;;;;;;;;;25.90;47.70;;;;;;4985175;28;95797;-57
2022/01/14 07:47:22;;;;;;;;;;;25.90;47.10;;;;;;4959308;28;95737;-65
2022/01/14 07:49:54;;;;;;;;;;;25.90;47.00;;;;;;4986884;28;96423;-57
2022/01/14 07:52:25;;;;;;;;;;;25.90;47.00;;;;;;5000767;28;96238;-63
2022/01/14 07:54:55;;;;;;;;;;;25.90;47.00;;;;;;4990140;28;95941;-59
2022/01/14 07:57:26;;;;;;;;;;;25.90;47.00;;;;;;4987770;28;95660;-58
2022/01/14 07:59:57;;;;;;;;;;;25.90;47.00;;;;;;4986584;28;96931;-59
2022/01/14 08:02:28;;;;;;;;;;;25.90;47.00;;;;;;4999407;28;98402;-58
2022/01/14 08:05:02;;;;;;;;;;;25.90;47.00;;;;;;4992184;28;95821;-56
2022/01/14 08:07:34;;;;;;;;;;;25.90;46.90;;;;;;4974106;28;96025;-65
2022/01/14 08:10:06;;;;;;;;;;;25.80;46.90;;;;;;5013819;27;98554;-57
2022/01/14 08:12:36;;;;;;;;;;;25.80;46.90;;;;;;5000522;28;96223;-60
2022/01/14 08:15:08;;;;;;;;;;;25.80;46.90;;;;;;4989503;28;96077;-61
2022/01/14 08:17:38;;;;;;;;;;;25.70;47.00;;;;;;5003108;28;96582;-58
2022/01/14 08:20:10;;;;;;;;;;;25.70;47.00;;;;;;5004472;28;97638;-58
2022/01/14 08:22:41;;;;;;;;;;;25.70;47.00;;;;;;4970031;28;96351;-60
2022/01/14 08:25:13;;;;;;;;;;;25.70;47.10;;;;;;4982819;28;96363;-57
2022/01/14 08:27:43;;;;;;;;;;;25.60;47.10;;;;;;4990570;28;95737;-60
2022/01/14 08:30:13;;;;;;;;;;;25.60;47.20;;;;;;4982068;28;96188;-61
2022/01/14 08:32:44;;;;;;;;;;;25.60;47.10;;;;;;4979793;28;101657;-62
2022/01/14 08:35:14;;;;;;;;;;;25.60;47.20;;;;;;4970620;28;95710;-59
2022/01/14 08:37:44;;;;;;;;;;;25.50;47.30;;;;;;4965196;28;95795;-60
2022/01/14 08:40:17;;;;;;;;;;;25.50;47.30;;;;;;4961810;28;96025;-58
2022/01/14 08:42:53;;;;;;;;;;;25.50;47.30;;;;;;4980484;28;96143;-59
2022/01/14 08:45:25;;;;;;;;;;;25.50;47.30;;;;;;4961907;28;95281;-61
2022/01/14 08:47:57;;;;;;;;;;;25.50;48.10;;;;;;4984689;28;95954;-60
2022/01/14 08:50:30;;;;;;;;;;;25.40;47.70;;;;;;4990435;28;96391;-60
2022/01/14 08:53:03;;;;;;;;;;;25.40;48.00;;;;;;4988105;28;96913;-63
2022/01/14 08:55:35;;;;;;;;;;;25.40;48.30;;;;;;4992114;28;95826;-59
2022/01/14 08:58:07;;;;;;;;;;;25.30;48.60;;;;;;4998127;28;96627;-64
2022/01/14 09:00:37;;;;;;;;;;;25.30;48.90;;;;;;4981759;28;95943;-61
2022/01/14 09:03:07;;;;;;;;;;;25.30;49.30;;;;;;4969719;28;95964;-60
2022/01/14 09:05:37;;;;;;;;;;;25.30;49.50;;;;;;4968055;28;95887;-63
2022/01/14 09:08:07;;;;;;;;;;;25.30;49.80;;;;;;4968370;28;95837;-59
2022/01/14 09:10:39;;;;;;;;;;;25.20;49.90;;;;;;4967637;28;100047;-60
2022/01/14 09:13:09;;;;;;;;;;;25.20;50.30;;;;;;4970269;28;96810;-59
2022/01/14 09:15:40;;;;;;;;;;;25.20;50.50;;;;;;4953374;28;95478;-62
2022/01/14 09:18:11;;;;;;;;;;;25.20;50.80;;;;;;5004601;28;96186;-58
2022/01/14 09:20:42;;;;;;;;;;;25.20;51.00;;;;;;4971287;28;97019;-60
2022/01/14 09:23:17;;;;;;;;;;;25.20;51.50;;;;;;5003558;28;97812;-60
2022/01/14 09:25:48;;;;;;;;;;;25.20;52.00;;;;;;4989452;28;95316;-64
2022/01/14 09:28:18;;;;;;;;;;;25.20;52.60;;;;;;4994530;28;95800;-63
2022/01/14 09:30:48;;;;;;;;;;;25.20;53.00;;;;;;4983785;28;98150;-63
2022/01/14 09:33:18;;;;;;;;;;;25.20;53.40;;;;;;4990602;28;95810;-58
2022/01/14 09:35:48;;;;;;;;;;;25.20;53.30;;;;;;4991353;28;97237;-63
2022/01/14 09:38:19;;;;;;;;;;;25.20;53.30;;;;;;4989138;28;96867;-60
2022/01/14 09:40:49;;;;;;;;;;;25.10;53.40;;;;;;4992081;28;95870;-59
2022/01/14 09:43:20;;;;;;;;;;;25.10;53.70;;;;;;4989364;28;95972;-62
2022/01/14 09:46:05;;;;;;;;;;;25.10;54.00;;;;;;4973393;28;96060;-61
2022/01/14 09:48:36;;;;;;;;;;;25.20;59.70;;;;;;4991445;28;96554;-62
2022/01/14 09:51:07;;;;;;;;;;;25.30;69.10;;;;;;4988993;28;96433;-64
2022/01/14 09:53:38;;;;;;;;;;;25.20;65.60;;;;;;4981182;28;95999;-60
2022/01/14 09:56:09;;;;;;;;;;;24.70;71.60;;;;;;4967737;28;97453;-59
2022/01/14 09:58:46;;;;;;;;;;;24.20;72.90;;;;;;4987522;28;95917;-55
2022/01/14 10:01:20;;;;;;;;;;;24.40;71.20;;;;;;4980651;28;98473;-58
2022/01/14 10:03:54;;;;;;;;;;;24.60;67.90;;;;;;4988804;28;96278;-62
2022/01/14 10:06:35;;;;;;;;;;;24.70;66.40;;;;;;4998436;28;95354;-57
2022/01/14 10:09:15;;;;;;;;;;;24.60;64.70;;;;;;4981886;28;95853;-61
2022/01/14 10:12:05;;;;;;;;;;;24.60;64.20;;;;;;4961766;28;97983;-60
2022/01/14 10:14:40;;;;;;;;;;;24.70;64.40;;;;;;4999510;28;96113;-62
2022/01/14 10:17:10;;;;;;;;;;;24.70;64.30;;;;;;4961088;28;95566;-59
2022/01/14 10:19:43;;;;;;;;;;;24.70;64.10;;;;;;4965833;28;95751;-58
2022/01/14 10:22:25;;;;;;;;;;;24.80;64.10;;;;;;4966891;28;96035;-57
2022/01/14 10:25:04;;;;;;;;;;;24.80;64.10;;;;;;4979131;28;95525;-60
2022/01/14 10:27:38;;;;;;;;;;;24.80;64.40;;;;;;4966461;28;95927;-57
2022/01/14 10:30:10;;;;;;;;;;;24.90;64.70;;;;;;4982145;28;95945;-59
2022/01/14 10:32:40;;;;;;;;;;;24.80;64.90;;;;;;4990946;28;97830;-60
2022/01/14 10:35:11;;;;;;;;;;;24.80;65.40;;;;;;4986646;28;95897;-62
2022/01/14 10:37:43;;;;;;;;;;;24.80;65.60;;;;;;4986409;28;96735;-59
2022/01/14 10:40:15;;;;;;;;;;;24.80;65.90;;;;;;4986755;28;96141;-60
2022/01/14 10:42:50;;;;;;;;;;;24.90;66.20;;;;;;4988955;28;96752;-57
2022/01/14 10:45:41;;;;;;;;;;;24.80;66.50;;;;;;4976014;28;96204;-63
2022/01/14 10:48:12;;;;;;;;;;;24.80;66.80;;;;;;4993664;28;95681;-59
2022/01/14 10:50:47;;;;;;;;;;;24.80;67.10;;;;;;4987421;28;95595;-56
2022/01/14 10:53:22;;;;;;;;;;;24.60;68.20;;;;;;4983403;28;98440;-57
2022/01/14 10:55:53;;;;;;;;;;;24.50;68.90;;;;;;4985187;28;95775;-63
2022/01/14 10:58:25;;;;;;;;;;;24.40;69.20;;;;;;4986540;28;96048;-58
2022/01/14 11:01:02;;;;;;;;;;;24.00;69.80;;;;;;4977305;28;95689;-59
2022/01/14 11:03:33;;;;;;;;;;;24.00;70.60;;;;;;4985396;28;96077;-61
2022/01/14 11:06:22;;;;;;;;;;;23.80;71.00;;;;;;4965834;28;96732;-60
2022/01/14 11:08:57;;;;;;;;;;;23.50;72.20;;;;;;4969919;28;95824;-60
2022/01/14 11:11:30;;;;;;;;;;;23.70;71.80;;;;;;4958260;28;100388;-61
2022/01/14 11:13:59;;;;;;;;;;;23.70;71.60;;;;;;4986096;28;97018;-59
2022/01/14 11:16:30;;;;;;;;;;;23.60;72.70;;;;;;4977779;28;98327;-58
2022/01/14 11:19:02;;;;;;;;;;;23.30;74.30;;;;;;4984375;28;95394;-59
2022/01/14 11:24:26;;;;;;;;;;;23.50;74.20;;;;;;4982387;28;96083;-62
2022/01/14 11:26:59;;;;;;;;;;;23.70;73.20;;;;;;4985313;28;96035;-60
2022/01/14 11:29:34;;;;;;;;;;;23.80;72.30;;;;;;4979263;28;95762;-63
2022/01/14 11:32:05;;;;;;;;;;;23.80;72.00;;;;;;4993888;28;95885;-61
2022/01/14 11:34:42;;;;;;;;;;;23.80;71.80;;;;;;4985805;28;96080;-61
2022/01/14 11:37:14;;;;;;;;;;;23.80;72.00;;;;;;4986606;28;96024;-61
2022/01/14 11:39:59;;;;;;;;;;;23.70;72.20;;;;;;4990360;28;96006;-61
2022/01/14 11:42:46;;;;;;;;;;;23.70;73.10;;;;;;4990976;28;95796;-58
2022/01/14 11:45:21;;;;;;;;;;;23.60;73.90;;;;;;5004506;28;96900;-61
2022/01/14 11:47:58;;;;;;;;;;;23.70;74.20;;;;;;4986831;28;95785;-62
2022/01/14 11:50:29;;;;;;;;;;;23.80;73.90;;;;;;4988077;28;96084;-60
2022/01/14 11:53:01;;;;;;;;;;;23.80;73.40;;;;;;4970026;28;95880;-60
2022/01/14 11:55:32;;;;;;;;;;;23.80;73.30;;;;;;4988896;28;96388;-58
2022/01/14 11:58:12;;;;;;;;;;;23.80;74.10;;;;;;4990334;28;95414;-61
2022/01/14 12:00:43;;;;;;;;;;;23.80;74.40;;;;;;4983795;28;95820;-59
2022/01/14 12:03:13;;;;;;;;;;;23.90;74.10;;;;;;4989819;28;95642;-63
2022/01/14 12:05:54;;;;;;;;;;;23.90;74.00;;;;;;4989450;28;97207;-63
2022/01/14 12:08:31;;;;;;;;;;;24.00;74.10;;;;;;4986474;28;95473;-62
2022/01/14 12:11:09;;;;;;;;;;;24.00;73.60;;;;;;4981562;28;95893;-61
2022/01/14 12:13:41;;;;;;;;;;;24.00;73.50;;;;;;4991207;28;95948;-62
2022/01/14 12:16:36;;;;;;;;;;;24.00;73.30;;;;;;4983677;28;95965;-61
2022/01/14 12:19:10;;;;;;;;;;;24.00;73.20;;;;;;4991330;28;95958;-60
2022/01/14 12:21:52;;;;;;;;;;;24.00;73.10;;;;;;5004681;28;95961;-59
2022/01/14 12:24:22;;;;;;;;;;;24.00;73.00;;;;;;4992884;28;98048;-62
2022/01/14 12:26:54;;;;;;;;;;;24.00;73.20;;;;;;4989035;28;95994;-62
2022/01/14 12:29:37;;;;;;;;;;;24.00;73.20;;;;;;4991290;28;95914;-61
2022/01/14 12:32:08;;;;;;;;;;;24.00;72.10;;;;;;4979088;28;95310;-61
2022/01/14 12:34:42;;;;;;;;;;;24.00;72.80;;;;;;4992203;28;95869;-59
2022/01/14 12:37:22;;;;;;;;;;;24.00;72.70;;;;;;4988924;28;96356;-61
2022/01/14 12:39:53;;;;;;;;;;;24.00;72.80;;;;;;4974311;28;95924;-60
2022/01/14 12:42:26;;;;;;;;;;;24.00;72.90;;;;;;4989907;28;95186;-60
2022/01/14 12:44:58;;;;;;;;;;;24.00;72.80;;;;;;4991990;28;95309;-59
2022/01/14 12:47:33;;;;;;;;;;;24.00;72.80;;;;;;4986457;28;96871;-58
2022/01/14 12:50:05;;;;;;;;;;;24.00;72.90;;;;;;4977348;28;95844;-60
2022/01/14 12:52:47;;;;;;;;;;;24.00;73.00;;;;;;4992315;28;95627;-59
2022/01/14 12:55:18;;;;;;;;;;;24.00;72.90;;;;;;4994883;28;95363;-61
2022/01/14 12:57:57;;;;;;;;;;;24.00;73.00;;;;;;4990550;28;96058;-62
2022/01/14 13:00:28;;;;;;;;;;;24.00;73.20;;;;;;4982742;28;96107;-61
2022/01/14 13:02:59;;;;;;;;;;;23.90;73.20;;;;;;4990224;28;95887;-60
2022/01/14 13:05:30;;;;;;;;;;;23.90;73.30;;;;;;4992493;28;95676;-60
2022/01/14 13:08:03;;;;;;;;;;;23.90;73.40;;;;;;4971238;28;96747;-59
2022/01/14 13:10:35;;;;;;;;;;;24.00;73.50;;;;;;4989625;28;95988;-61
2022/01/14 13:13:05;;;;;;;;;;;23.90;73.50;;;;;;5006509;28;95929;-62
2022/01/14 13:15:36;;;;;;;;;;;23.90;73.60;;;;;;4982584;28;97934;-62
2022/01/14 13:18:15;;;;;;;;;;;23.90;73.70;;;;;;4987434;28;96372;-61
2022/01/14 13:20:45;;;;;;;;;;;23.90;73.80;;;;;;4989298;28;96356;-59
2022/01/14 13:23:20;;;;;;;;;;;23.90;74.00;;;;;;4985547;28;95777;-60
2022/01/14 13:25:51;;;;;;;;;;;23.80;74.10;;;;;;4958287;28;95498;-61
2022/01/14 13:28:20;;;;;;;;;;;23.80;75.00;;;;;;4991285;28;96669;-59
2022/01/14 13:30:50;;;;;;;;;;;23.80;74.30;;;;;;4983692;28;95793;-61
2022/01/14 13:33:20;;;;;;;;;;;23.70;74.70;;;;;;4990118;28;95779;-59
2022/01/14 13:35:51;;;;;;;;;;;23.60;75.00;;;;;;4993058;28;95739;-59
2022/01/14 13:38:22;;;;;;;;;;;23.60;75.30;;;;;;4991255;28;96585;-62
2022/01/14 13:40:53;;;;;;;;;;;23.60;75.20;;;;;;4989103;28;96274;-60
2022/01/14 13:43:29;;;;;;;;;;;23.60;75.40;;;;;;4989971;28;95624;-61
2022/01/14 13:46:06;;;;;;;;;;;23.40;75.60;;;;;;4981268;28;95720;-62
2022/01/14 13:48:44;;;;;;;;;;;23.40;76.20;;;;;;4989530;28;96013;-63
2022/01/14 13:51:21;;;;;;;;;;;23.40;76.60;;;;;;4989530;28;96287;-61
2022/01/14 13:53:52;;;;;;;;;;;23.40;76.30;;;;;;4973474;28;96044;-59
2022/01/14 13:56:24;;;;;;;;;;;23.40;76.40;;;;;;4993208;28;95755;-62
2022/01/14 13:58:58;;;;;;;;;;;23.40;76.20;;;;;;4990635;28;96395;-61
2022/01/14 14:01:31;;;;;;;;;;;23.50;76.10;;;;;;4982984;28;95448;-61
2022/01/14 14:06:39;;;;;;;;;;;23.60;75.70;;;;;;4990486;28;96053;-61
2022/01/14 14:09:35;;;;;;;;;;;23.40;75.70;;;;;;4989054;28;95982;-63
2022/01/14 14:12:44;;;;;;;;;;;23.40;76.40;;;;;;4970202;28;95649;-59
2022/01/14 14:18:04;;;;;;;;;;;23.40;76.50;;;;;;4990338;28;95591;-62
2022/01/14 14:20:37;;;;;;;;;;;23.50;76.40;;;;;;4990111;28;96531;-63
2022/01/14 14:23:17;;;;;;;;;;;23.60;76.20;;;;;;4988958;28;95999;-60
2022/01/14 14:25:48;;;;;;;;;;;23.60;76.20;;;;;;4996716;28;95654;-62
2022/01/14 14:28:25;;;;;;;;;;;23.60;75.90;;;;;;4991182;28;95434;-63
2022/01/14 14:30:54;;;;;;;;;;;23.70;75.90;;;;;;5000943;28;96641;-61
2022/01/14 14:33:27;;;;;;;;;;;23.70;75.90;;;;;;4989656;28;95834;-62
2022/01/14 14:35:59;;;;;;;;;;;23.80;75.90;;;;;;4994300;28;95503;-62
2022/01/14 14:38:30;;;;;;;;;;;23.70;75.70;;;;;;4992153;28;95759;-60
2022/01/14 14:41:13;;;;;;;;;;;23.70;75.90;;;;;;4990943;28;96613;-60
2022/01/14 14:43:44;;;;;;;;;;;23.70;75.80;;;;;;4991404;28;95740;-60
2022/01/14 14:46:15;;;;;;;;;;;23.70;75.80;;;;;;4983995;28;98695;-61
2022/01/14 14:48:46;;;;;;;;;;;23.70;75.70;;;;;;4992170;28;96174;-59
2022/01/14 14:51:16;;;;;;;;;;;23.80;75.80;;;;;;4993427;28;96584;-59
2022/01/14 14:53:47;;;;;;;;;;;23.70;75.80;;;;;;4973043;28;95845;-61
2022/01/14 14:56:17;;;;;;;;;;;23.70;76.00;;;;;;5003129;28;95918;-60
2022/01/14 14:58:48;;;;;;;;;;;23.70;76.00;;;;;;4989168;28;96524;-62
2022/01/14 15:01:19;;;;;;;;;;;23.50;74.50;;;;;;4996532;28;96123;-61
2022/01/14 15:03:52;;;;;;;;;;;23.30;76.70;;;;;;4973614;28;95790;-64
2022/01/14 15:06:28;;;;;;;;;;;23.20;77.80;;;;;;4989999;28;95994;-58
2022/01/14 15:08:59;;;;;;;;;;;23.10;77.80;;;;;;4986562;28;98739;-59
2022/01/14 15:11:29;;;;;;;;;;;23.00;78.50;;;;;;4966443;28;97254;-58
2022/01/14 15:14:00;;;;;;;;;;;22.90;78.80;;;;;;5003060;28;95372;-65
2022/01/14 15:19:27;;;;;;;;;;;22.60;80.00;;;;;;4961825;28;95810;-59
2022/01/14 15:21:57;;;;;;;;;;;22.50;80.60;;;;;;4989676;28;96046;-58
2022/01/14 15:24:33;;;;;;;;;;;22.50;80.80;;;;;;4992025;28;95436;-65